Time;durP1;ratioP1;P1;durP2;ratioP2;P2;SDS_P1;SDS_P2;PMS_P1;PMS_P2;Temp;Humidity;BMP_temperature;BMP_pressure;BME280_temperature;BME280_humidity;BME280_pressure;Samples;Min_cycle;Max_cycle;Signal;HPM_P1;HPM_P2
2023/06/21 00:01:35;;;;;;;13.68;10.68;;;;;;;;;;4961950;28;20135;-73
2023/06/21 00:04:01;;;;;;;12.80;9.48;;;;;;;;;;5027585;28;20058;-71
2023/06/21 00:06:29;;;;;;;15.73;11.48;;;;;;;;;;4960748;28;20044;-71
2023/06/21 00:08:58;;;;;;;17.17;13.57;;;;;;;;;;4956195;28;20053;-71
2023/06/21 00:11:24;;;;;;;18.27;13.63;;;;;;;;;;5024357;28;20044;-71
2023/06/21 00:13:54;;;;;;;18.63;12.77;;;;;;;;;;5023268;28;20050;-71
2023/06/21 00:16:20;;;;;;;21.25;15.90;;;;;;;;;;4950901;28;20407;-71
2023/06/21 00:18:47;;;;;;;25.90;16.02;;;;;;;;;;4959572;28;20562;-71
2023/06/21 00:21:13;;;;;;;23.77;17.02;;;;;;;;;;5020144;28;20418;-72
2023/06/21 00:23:40;;;;;;;21.52;16.77;;;;;;;;;;4958483;28;20125;-72
2023/06/21 00:26:06;;;;;;;23.50;16.92;;;;;;;;;;4961173;28;20055;-74
2023/06/21 00:28:32;;;;;;;20.75;16.27;;;;;;;;;;4956263;28;20043;-72
2023/06/21 00:30:58;;;;;;;25.90;17.88;;;;;;;;;;4958098;28;20491;-72
2023/06/21 00:33:24;;;;;;;19.92;13.77;;;;;;;;;;4956417;28;20131;-71
2023/06/21 00:35:50;;;;;;;21.92;15.85;;;;;;;;;;4960351;28;20362;-72
2023/06/21 00:38:16;;;;;;;23.67;16.75;;;;;;;;;;5027855;28;20138;-72
2023/06/21 00:40:42;;;;;;;17.48;14.00;;;;;;;;;;5054451;28;20067;-72
2023/06/21 00:43:08;;;;;;;19.38;14.68;;;;;;;;;;4956367;28;20559;-72
2023/06/21 00:45:39;;;;;;;23.75;15.75;;;;;;;;;;5011082;28;20051;-72
2023/06/21 00:48:05;;;;;;;22.45;15.23;;;;;;;;;;4966819;28;20055;-72
2023/06/21 00:50:31;;;;;;;22.73;17.10;;;;;;;;;;4950582;28;20040;-72
2023/06/21 00:52:57;;;;;;;23.08;17.25;;;;;;;;;;4954045;28;20050;-72
2023/06/21 00:55:23;;;;;;;22.33;16.08;;;;;;;;;;4954946;28;20043;-72
2023/06/21 00:57:50;;;;;;;20.67;16.83;;;;;;;;;;5030471;28;20511;-72
2023/06/21 01:00:24;;;;;;;20.50;16.55;;;;;;;;;;5026031;28;20489;-72
2023/06/21 01:02:51;;;;;;;19.98;15.35;;;;;;;;;;5019921;28;20058;-72
2023/06/21 01:05:18;;;;;;;20.45;14.27;;;;;;;;;;4959954;28;20051;-72
2023/06/21 01:08:02;;;;;;;19.00;13.55;;;;;;;;;;5021614;28;20047;-72
2023/06/21 01:10:35;;;;;;;20.27;14.13;;;;;;;;;;4956903;28;20051;-72
2023/06/21 01:13:01;;;;;;;18.77;13.32;;;;;;;;;;4962396;28;20461;-72
2023/06/21 01:15:30;;;;;;;21.83;15.13;;;;;;;;;;4960477;28;20081;-72
2023/06/21 01:17:59;;;;;;;18.10;14.57;;;;;;;;;;4957352;28;20380;-72
2023/06/21 01:20:29;;;;;;;15.80;12.13;;;;;;;;;;4956568;28;20055;-72
2023/06/21 01:23:09;;;;;;;18.85;13.02;;;;;;;;;;4964568;28;20129;-72
2023/06/21 01:25:41;;;;;;;18.10;13.00;;;;;;;;;;4951108;28;20047;-72
2023/06/21 01:28:26;;;;;;;17.80;12.35;;;;;;;;;;4962450;28;20046;-72
2023/06/21 01:30:53;;;;;;;17.10;12.15;;;;;;;;;;4953214;28;20078;-72
2023/06/21 01:33:19;;;;;;;17.58;11.85;;;;;;;;;;4954675;28;20108;-72
2023/06/21 01:35:45;;;;;;;15.10;11.30;;;;;;;;;;4959837;28;20043;-72
2023/06/21 01:38:11;;;;;;;17.08;12.27;;;;;;;;;;5033551;28;20059;-73
2023/06/21 01:40:40;;;;;;;16.05;11.27;;;;;;;;;;4955222;28;20049;-72
2023/06/21 01:43:07;;;;;;;16.38;11.13;;;;;;;;;;4961215;28;20046;-73
2023/06/21 01:45:33;;;;;;;15.35;10.73;;;;;;;;;;5028815;28;20056;-74
2023/06/21 01:48:00;;;;;;;14.45;10.43;;;;;;;;;;4967592;28;20043;-73
2023/06/21 01:50:27;;;;;;;14.15;9.98;;;;;;;;;;4951204;28;20047;-72
2023/06/21 01:52:53;;;;;;;12.88;9.30;;;;;;;;;;4961444;28;20054;-73
2023/06/21 01:55:20;;;;;;;14.25;10.18;;;;;;;;;;5027179;28;20054;-72
2023/06/21 01:57:47;;;;;;;14.15;10.40;;;;;;;;;;4964759;28;20050;-73
2023/06/21 02:00:16;;;;;;;15.15;9.55;;;;;;;;;;4953868;28;20356;-72
2023/06/21 02:03:03;;;;;;;14.95;9.93;;;;;;;;;;4953443;28;20051;-73
2023/06/21 02:05:30;;;;;;;12.60;9.13;;;;;;;;;;4958288;28;20097;-72
2023/06/21 02:07:57;;;;;;;13.10;8.07;;;;;;;;;;4956666;28;20380;-73
2023/06/21 02:10:25;;;;;;;13.27;8.45;;;;;;;;;;4956987;28;20074;-72
2023/06/21 02:12:54;;;;;;;12.35;8.27;;;;;;;;;;4962915;28;20057;-73
2023/06/21 02:15:20;;;;;;;13.30;7.75;;;;;;;;;;5059990;28;20054;-72
2023/06/21 02:17:50;;;;;;;10.55;7.63;;;;;;;;;;4967705;28;20130;-72
2023/06/21 02:20:17;;;;;;;16.17;8.80;;;;;;;;;;4952957;28;20748;-72
2023/06/21 02:22:43;;;;;;;15.43;8.02;;;;;;;;;;4962703;28;20402;-72
2023/06/21 02:25:10;;;;;;;15.85;8.52;;;;;;;;;;5030168;28;20054;-73
2023/06/21 02:27:37;;;;;;;14.70;8.10;;;;;;;;;;5021978;28;20498;-73
2023/06/21 02:30:03;;;;;;;11.13;7.93;;;;;;;;;;4961320;28;20089;-72
2023/06/21 02:32:29;;;;;;;13.95;7.00;;;;;;;;;;4962789;28;20055;-72
2023/06/21 02:34:55;;;;;;;10.00;6.07;;;;;;;;;;4959970;28;20046;-72
2023/06/21 02:37:21;;;;;;;14.82;6.63;;;;;;;;;;4965534;28;20050;-72
2023/06/21 02:39:47;;;;;;;10.73;5.93;;;;;;;;;;5010898;28;20105;-72
2023/06/21 02:42:13;;;;;;;14.07;6.72;;;;;;;;;;5023857;28;20288;-72
2023/06/21 02:44:39;;;;;;;13.77;6.32;;;;;;;;;;5012310;28;20042;-73
2023/06/21 02:47:08;;;;;;;13.43;6.53;;;;;;;;;;5026959;28;20108;-73
2023/06/21 02:49:36;;;;;;;12.15;6.35;;;;;;;;;;5011453;28;20039;-72
2023/06/21 02:52:03;;;;;;;10.60;5.85;;;;;;;;;;5042702;28;20063;-73
2023/06/21 02:54:30;;;;;;;12.65;6.07;;;;;;;;;;5021608;28;20177;-72
2023/06/21 02:56:56;;;;;;;13.38;6.65;;;;;;;;;;5019560;28;20498;-73
2023/06/21 02:59:22;;;;;;;14.50;7.63;;;;;;;;;;4960469;28;20051;-72
2023/06/21 03:01:48;;;;;;;13.18;8.07;;;;;;;;;;5026738;28;20055;-72
2023/06/21 03:04:16;;;;;;;11.98;7.97;;;;;;;;;;5025172;28;20096;-73
2023/06/21 03:06:42;;;;;;;13.13;8.70;;;;;;;;;;4957289;28;20051;-72
2023/06/21 03:09:08;;;;;;;14.00;8.90;;;;;;;;;;4965015;28;20176;-72
2023/06/21 03:11:34;;;;;;;12.68;7.38;;;;;;;;;;5017117;28;20047;-73
2023/06/21 03:14:00;;;;;;;13.68;8.38;;;;;;;;;;4961935;28;20448;-73
2023/06/21 03:16:26;;;;;;;12.55;8.55;;;;;;;;;;5006200;28;20063;-73
2023/06/21 03:18:52;;;;;;;14.90;9.13;;;;;;;;;;4960252;28;20486;-73
2023/06/21 03:21:18;;;;;;;16.90;9.50;;;;;;;;;;5006681;28;20074;-72
2023/06/21 03:23:44;;;;;;;13.85;8.35;;;;;;;;;;4957246;28;20089;-73
2023/06/21 03:26:10;;;;;;;13.50;8.32;;;;;;;;;;5012210;28;20558;-73
2023/06/21 03:28:36;;;;;;;13.50;9.55;;;;;;;;;;5015201;28;20042;-73
2023/06/21 03:31:02;;;;;;;13.20;8.45;;;;;;;;;;5032696;28;20189;-72
2023/06/21 03:33:28;;;;;;;14.35;9.57;;;;;;;;;;4962340;28;20043;-73
2023/06/21 03:35:54;;;;;;;14.57;8.55;;;;;;;;;;4955540;28;20043;-73
2023/06/21 03:38:20;;;;;;;13.07;9.00;;;;;;;;;;5032362;28;20536;-73
2023/06/21 03:40:46;;;;;;;14.32;8.25;;;;;;;;;;4967631;28;20055;-73
2023/06/21 03:43:13;;;;;;;12.27;8.32;;;;;;;;;;4964006;28;20058;-73
2023/06/21 03:45:39;;;;;;;12.90;9.20;;;;;;;;;;4947271;28;20061;-73
2023/06/21 03:48:05;;;;;;;13.68;9.73;;;;;;;;;;4965084;28;20172;-74
2023/06/21 03:50:32;;;;;;;13.38;9.13;;;;;;;;;;5014940;28;20055;-73
2023/06/21 03:52:58;;;;;;;15.10;10.27;;;;;;;;;;5010703;28;20051;-73
2023/06/21 03:55:24;;;;;;;13.27;10.32;;;;;;;;;;4949456;28;20166;-73
2023/06/21 03:57:50;;;;;;;19.25;10.18;;;;;;;;;;5030092;28;20394;-73
2023/06/21 04:00:17;;;;;;;15.40;9.60;;;;;;;;;;5028508;28;20050;-73
2023/06/21 04:02:43;;;;;;;18.42;10.13;;;;;;;;;;4949718;28;20051;-73
2023/06/21 04:05:10;;;;;;;13.63;10.00;;;;;;;;;;5024792;28;20436;-73
2023/06/21 04:07:36;;;;;;;17.02;10.35;;;;;;;;;;4964066;28;20048;-73
2023/06/21 04:10:02;;;;;;;15.95;10.05;;;;;;;;;;5025753;28;20059;-73
2023/06/21 04:12:29;;;;;;;16.98;11.98;;;;;;;;;;4963228;28;20450;-74
2023/06/21 04:14:57;;;;;;;17.42;10.57;;;;;;;;;;4958817;28;20046;-74
2023/06/21 04:17:23;;;;;;;14.90;10.70;;;;;;;;;;4962487;28;20043;-74
2023/06/21 04:19:49;;;;;;;15.95;10.52;;;;;;;;;;5030645;28;20497;-74
2023/06/21 04:22:15;;;;;;;14.75;10.95;;;;;;;;;;4962864;28;20043;-74
2023/06/21 04:24:41;;;;;;;15.52;11.48;;;;;;;;;;4965577;28;20498;-75
2023/06/21 04:27:07;;;;;;;16.45;12.25;;;;;;;;;;4958834;28;20555;-74
2023/06/21 04:29:36;;;;;;;16.73;11.68;;;;;;;;;;4961291;28;20060;-75
2023/06/21 04:32:03;;;;;;;18.08;13.38;;;;;;;;;;4963841;28;20211;-74
2023/06/21 04:34:29;;;;;;;17.55;12.00;;;;;;;;;;4949734;28;20039;-74
2023/06/21 04:36:55;;;;;;;14.15;11.18;;;;;;;;;;5027949;28;20552;-74
2023/06/21 04:39:21;;;;;;;14.45;10.85;;;;;;;;;;4959938;28;20104;-74
2023/06/21 04:41:47;;;;;;;14.48;9.20;;;;;;;;;;4960652;28;20054;-74
2023/06/21 04:44:17;;;;;;;16.17;8.55;;;;;;;;;;5023864;28;20047;-74
2023/06/21 04:46:43;;;;;;;11.55;7.68;;;;;;;;;;4954840;28;20047;-74
2023/06/21 04:49:09;;;;;;;11.32;8.07;;;;;;;;;;4959255;28;20062;-74
2023/06/21 04:51:35;;;;;;;11.25;7.22;;;;;;;;;;4963494;28;20040;-74
2023/06/21 04:54:01;;;;;;;11.20;7.93;;;;;;;;;;4957614;28;20043;-74
2023/06/21 04:56:27;;;;;;;14.98;8.50;;;;;;;;;;5054385;28;20104;-74
2023/06/21 04:58:53;;;;;;;9.95;7.72;;;;;;;;;;5023195;28;20047;-74
2023/06/21 05:01:19;;;;;;;13.48;8.52;;;;;;;;;;4950772;28;20051;-74
2023/06/21 05:03:48;;;;;;;12.02;8.15;;;;;;;;;;5025167;28;20526;-74
2023/06/21 05:06:14;;;;;;;9.63;7.13;;;;;;;;;;4948992;28;20047;-74
2023/06/21 05:08:43;;;;;;;13.10;7.95;;;;;;;;;;5018610;28;20061;-74
2023/06/21 05:11:09;;;;;;;14.68;9.82;;;;;;;;;;4963648;28;20073;-75
2023/06/21 05:13:35;;;;;;;10.93;6.82;;;;;;;;;;4958579;28;20049;-74
2023/06/21 05:16:01;;;;;;;12.93;7.78;;;;;;;;;;4963117;28;20039;-74
2023/06/21 05:18:27;;;;;;;9.95;7.30;;;;;;;;;;4955260;28;20054;-74
2023/06/21 05:20:53;;;;;;;10.25;6.43;;;;;;;;;;4958481;28;20053;-74
2023/06/21 05:23:19;;;;;;;11.90;7.65;;;;;;;;;;4964396;28;20049;-74
2023/06/21 05:25:45;;;;;;;9.55;7.05;;;;;;;;;;4956585;28;20049;-74
2023/06/21 05:28:11;;;;;;;10.43;6.40;;;;;;;;;;5016199;28;20070;-74
2023/06/21 05:30:37;;;;;;;9.13;6.30;;;;;;;;;;4940836;28;20092;-74
2023/06/21 05:33:03;;;;;;;9.90;6.95;;;;;;;;;;4957096;28;20168;-74
2023/06/21 05:35:29;;;;;;;13.30;7.47;;;;;;;;;;4946371;28;20506;-74
2023/06/21 05:37:56;;;;;;;10.07;7.05;;;;;;;;;;4945597;28;20055;-74
2023/06/21 05:40:22;;;;;;;8.27;6.20;;;;;;;;;;4945003;28;20079;-73
2023/06/21 05:42:48;;;;;;;9.57;6.43;;;;;;;;;;5024945;28;20093;-74
2023/06/21 05:45:14;;;;;;;11.07;6.57;;;;;;;;;;4947628;28;20047;-74
2023/06/21 05:47:40;;;;;;;11.85;6.93;;;;;;;;;;4943191;28;20043;-75
2023/06/21 05:50:06;;;;;;;11.43;7.47;;;;;;;;;;4947182;28;20043;-74
2023/06/21 05:52:32;;;;;;;9.40;6.30;;;;;;;;;;4954248;28;20901;-74
2023/06/21 05:54:58;;;;;;;7.82;5.57;;;;;;;;;;4986492;28;20575;-74
2023/06/21 05:57:26;;;;;;;8.52;6.13;;;;;;;;;;4947928;28;20051;-74
2023/06/21 05:59:52;;;;;;;9.63;6.53;;;;;;;;;;4984234;28;20051;-74
2023/06/21 06:02:18;;;;;;;10.98;6.30;;;;;;;;;;4949401;28;20043;-74
2023/06/21 06:04:44;;;;;;;12.07;6.85;;;;;;;;;;4979637;28;20049;-74
2023/06/21 06:07:12;;;;;;;7.90;5.90;;;;;;;;;;5012892;28;20130;-74
2023/06/21 06:09:39;;;;;;;10.30;6.10;;;;;;;;;;4948361;28;20043;-74
2023/06/21 06:12:05;;;;;;;11.02;6.00;;;;;;;;;;4945426;28;20047;-74
2023/06/21 06:14:31;;;;;;;8.65;5.75;;;;;;;;;;4947386;28;20054;-75
2023/06/21 06:16:57;;;;;;;9.60;6.18;;;;;;;;;;4948819;28;20498;-74
2023/06/21 06:19:23;;;;;;;10.55;5.90;;;;;;;;;;4948621;28;20044;-74
2023/06/21 06:21:50;;;;;;;7.10;5.70;;;;;;;;;;4958370;28;20050;-73
2023/06/21 06:24:16;;;;;;;7.25;5.07;;;;;;;;;;4948853;28;20130;-72
2023/06/21 06:26:42;;;;;;;6.70;4.70;;;;;;;;;;5021127;28;20046;-73
2023/06/21 06:29:08;;;;;;;6.88;4.63;;;;;;;;;;4945550;28;20048;-73
2023/06/21 06:31:34;;;;;;;7.82;5.60;;;;;;;;;;5005877;28;20043;-73
2023/06/21 06:34:00;;;;;;;8.35;5.22;;;;;;;;;;4980641;28;20055;-73
2023/06/21 06:36:26;;;;;;;7.95;5.05;;;;;;;;;;4980992;28;20054;-73
2023/06/21 06:38:52;;;;;;;8.13;5.10;;;;;;;;;;4961371;28;20043;-73
2023/06/21 06:41:19;;;;;;;8.57;4.60;;;;;;;;;;4935121;28;20062;-72
2023/06/21 06:43:45;;;;;;;5.47;4.60;;;;;;;;;;5025110;28;20051;-73
2023/06/21 06:46:11;;;;;;;5.70;4.47;;;;;;;;;;4952557;28;20040;-73
2023/06/21 06:48:37;;;;;;;8.85;4.45;;;;;;;;;;4948949;28;20043;-73
2023/06/21 06:51:03;;;;;;;6.57;4.32;;;;;;;;;;5014365;28;20419;-73
2023/06/21 06:53:29;;;;;;;6.78;4.55;;;;;;;;;;4939451;28;20046;-72
2023/06/21 06:55:58;;;;;;;5.80;4.13;;;;;;;;;;4931187;28;20054;-72
2023/06/21 06:58:24;;;;;;;8.50;4.07;;;;;;;;;;4937910;28;20058;-71
2023/06/21 07:00:51;;;;;;;8.38;4.50;;;;;;;;;;4969013;28;20038;-72
2023/06/21 07:03:17;;;;;;;7.03;3.83;;;;;;;;;;4951146;28;20478;-70
2023/06/21 07:05:47;;;;;;;9.20;4.70;;;;;;;;;;4950555;28;20040;-72
2023/06/21 07:08:13;;;;;;;7.82;4.70;;;;;;;;;;5041930;28;20414;-72
2023/06/21 07:10:39;;;;;;;7.55;4.22;;;;;;;;;;5025735;28;20043;-71
2023/06/21 07:13:06;;;;;;;6.03;4.38;;;;;;;;;;5016219;28;20043;-72
2023/06/21 07:15:32;;;;;;;8.23;4.10;;;;;;;;;;5011275;28;20459;-73
2023/06/21 07:17:58;;;;;;;5.47;4.20;;;;;;;;;;4936771;28;20150;-72
2023/06/21 07:20:24;;;;;;;10.10;4.57;;;;;;;;;;4932080;28;20090;-71
2023/06/21 07:22:50;;;;;;;8.70;4.60;;;;;;;;;;5032652;28;20043;-72
2023/06/21 07:25:17;;;;;;;7.18;4.57;;;;;;;;;;4939027;28;20055;-72
2023/06/21 07:27:43;;;;;;;9.32;5.07;;;;;;;;;;4941408;28;20101;-73
2023/06/21 07:30:09;;;;;;;6.60;4.40;;;;;;;;;;4950332;28;20047;-73
2023/06/21 07:32:35;;;;;;;8.98;4.82;;;;;;;;;;5014793;28;20043;-73
2023/06/21 07:35:02;;;;;;;6.40;4.53;;;;;;;;;;4995739;28;20049;-73
2023/06/21 07:37:28;;;;;;;8.25;4.72;;;;;;;;;;5050810;28;20053;-73
2023/06/21 07:39:57;;;;;;;6.07;4.47;;;;;;;;;;5003886;28;20055;-73
2023/06/21 07:42:24;;;;;;;9.43;5.10;;;;;;;;;;5014699;28;20113;-73
2023/06/21 07:44:54;;;;;;;8.18;5.45;;;;;;;;;;5006073;28;20507;-73
2023/06/21 07:47:22;;;;;;;7.50;5.13;;;;;;;;;;4996972;28;20123;-73
2023/06/21 07:49:48;;;;;;;9.38;5.20;;;;;;;;;;4947428;28;20083;-72
2023/06/21 07:52:14;;;;;;;6.97;4.65;;;;;;;;;;4950175;28;20101;-72
2023/06/21 07:54:42;;;;;;;6.72;4.35;;;;;;;;;;4950330;28;20051;-72
2023/06/21 07:57:09;;;;;;;6.10;4.60;;;;;;;;;;4940219;28;20122;-73
2023/06/21 07:59:35;;;;;;;7.70;4.40;;;;;;;;;;4949804;28;20044;-73
2023/06/21 08:02:01;;;;;;;7.38;4.47;;;;;;;;;;4942703;28;20048;-73
2023/06/21 08:04:29;;;;;;;8.05;4.68;;;;;;;;;;5017595;28;20487;-74
2023/06/21 08:06:55;;;;;;;6.80;5.07;;;;;;;;;;5009742;28;20081;-73
2023/06/21 08:09:21;;;;;;;7.75;5.10;;;;;;;;;;4956014;28;20099;-73
2023/06/21 08:11:47;;;;;;;10.57;5.57;;;;;;;;;;4962350;28;20423;-73
2023/06/21 08:14:13;;;;;;;8.65;4.85;;;;;;;;;;4957157;28;20204;-73
2023/06/21 08:16:39;;;;;;;5.22;4.70;;;;;;;;;;4952539;28;20094;-73
2023/06/21 08:19:06;;;;;;;8.10;5.18;;;;;;;;;;4982712;28;20086;-74
2023/06/21 08:21:32;;;;;;;6.32;4.38;;;;;;;;;;4957206;28;20047;-74
2023/06/21 08:23:58;;;;;;;9.05;5.05;;;;;;;;;;5013744;28;20055;-73
2023/06/21 08:26:24;;;;;;;7.05;4.60;;;;;;;;;;4964504;28;20521;-73
2023/06/21 08:28:51;;;;;;;5.97;4.50;;;;;;;;;;4971900;28;20375;-74
2023/06/21 08:31:17;;;;;;;6.50;4.00;;;;;;;;;;4951393;28;20499;-73
2023/06/21 08:33:42;;;;;;;6.20;4.40;;;;;;;;;;5018147;28;20157;-73
2023/06/21 08:36:09;;;;;;;7.32;4.63;;;;;;;;;;5019473;28;20173;-74
2023/06/21 08:38:34;;;;;;;10.85;5.90;;;;;;;;;;5011331;28;20060;-74
2023/06/21 08:41:03;;;;;;;7.20;6.10;;;;;;;;;;5019278;28;20059;-73
2023/06/21 08:43:29;;;;;;;8.88;6.70;;;;;;;;;;4939217;28;20719;-73
2023/06/21 08:45:55;;;;;;;11.18;8.38;;;;;;;;;;4945963;28;20044;-74
2023/06/21 08:48:22;;;;;;;11.02;8.10;;;;;;;;;;4937982;28;20058;-73
2023/06/21 08:50:49;;;;;;;12.98;8.80;;;;;;;;;;4938564;28;20766;-73
2023/06/21 08:53:20;;;;;;;12.50;7.97;;;;;;;;;;4942974;28;20049;-74
2023/06/21 08:55:47;;;;;;;13.85;9.20;;;;;;;;;;5005159;28;20048;-74
2023/06/21 08:58:16;;;;;;;13.15;9.38;;;;;;;;;;4941285;28;20051;-73
2023/06/21 09:00:47;;;;;;;11.95;9.57;;;;;;;;;;5009133;28;20148;-73
2023/06/21 09:03:16;;;;;;;11.23;9.00;;;;;;;;;;4937888;28;20146;-73
2023/06/21 09:05:42;;;;;;;10.70;9.05;;;;;;;;;;4953494;28;20041;-74
2023/06/21 09:08:08;;;;;;;13.48;10.40;;;;;;;;;;4959621;28;20067;-73
2023/06/21 09:10:34;;;;;;;13.55;10.07;;;;;;;;;;4942271;28;20047;-73
2023/06/21 09:13:02;;;;;;;14.07;10.88;;;;;;;;;;5008499;28;20483;-74
2023/06/21 09:15:29;;;;;;;14.60;10.95;;;;;;;;;;4945093;28;20093;-74
2023/06/21 09:17:56;;;;;;;12.20;10.23;;;;;;;;;;4965520;28;20555;-74
2023/06/21 09:20:27;;;;;;;12.80;10.93;;;;;;;;;;4982185;28;20439;-73
2023/06/21 09:22:53;;;;;;;12.48;10.50;;;;;;;;;;4980049;28;20054;-74
2023/06/21 09:25:19;;;;;;;11.30;9.10;;;;;;;;;;4949572;28;20507;-73
2023/06/21 09:27:45;;;;;;;13.60;11.38;;;;;;;;;;4951916;28;20483;-73
2023/06/21 09:30:11;;;;;;;13.98;11.18;;;;;;;;;;4932937;28;20620;-74
2023/06/21 09:32:38;;;;;;;20.23;12.82;;;;;;;;;;5002651;28;20730;-74
2023/06/21 09:35:04;;;;;;;16.35;12.20;;;;;;;;;;4933168;28;20052;-74
2023/06/21 09:37:31;;;;;;;16.10;13.30;;;;;;;;;;4934018;28;20075;-73
2023/06/21 09:39:57;;;;;;;19.77;14.13;;;;;;;;;;5033498;28;20100;-74
2023/06/21 09:42:25;;;;;;;17.45;13.02;;;;;;;;;;5014385;28;20043;-74
2023/06/21 09:44:52;;;;;;;17.83;13.68;;;;;;;;;;5014190;28;20502;-74
2023/06/21 09:47:19;;;;;;;20.00;14.93;;;;;;;;;;5010093;28;20082;-74
2023/06/21 09:49:48;;;;;;;18.05;14.48;;;;;;;;;;4998733;28;20486;-74
2023/06/21 09:52:15;;;;;;;17.90;15.05;;;;;;;;;;4951850;28;20055;-73
2023/06/21 09:54:44;;;;;;;17.52;14.00;;;;;;;;;;4940093;28;20070;-74
2023/06/21 09:57:11;;;;;;;16.63;14.23;;;;;;;;;;4933324;28;20056;-74
2023/06/21 09:59:37;;;;;;;20.23;13.68;;;;;;;;;;4940094;28;20046;-73
2023/06/21 10:02:04;;;;;;;20.55;15.07;;;;;;;;;;5010126;28;20526;-74
2023/06/21 10:04:38;;;;;;;18.88;14.35;;;;;;;;;;5033995;28;20055;-73
2023/06/21 10:07:04;;;;;;;17.40;14.20;;;;;;;;;;5013890;28;20066;-73
2023/06/21 10:09:36;;;;;;;20.08;14.98;;;;;;;;;;4971343;28;20039;-74
2023/06/21 10:12:02;;;;;;;18.42;13.27;;;;;;;;;;4969366;28;20050;-74
2023/06/21 10:14:30;;;;;;;16.08;14.05;;;;;;;;;;4954762;28;20680;-73
2023/06/21 10:16:56;;;;;;;19.73;15.52;;;;;;;;;;5009765;28;20051;-74
2023/06/21 10:19:23;;;;;;;19.52;14.35;;;;;;;;;;4948494;28;20039;-74
2023/06/21 10:21:51;;;;;;;17.38;14.68;;;;;;;;;;5012810;28;20043;-74
2023/06/21 10:24:18;;;;;;;19.80;13.75;;;;;;;;;;4968938;28;20046;-73
2023/06/21 10:26:44;;;;;;;18.48;12.70;;;;;;;;;;4965017;28;20058;-74
2023/06/21 10:29:10;;;;;;;17.55;13.32;;;;;;;;;;4936496;28;20050;-75
2023/06/21 10:31:38;;;;;;;17.83;13.70;;;;;;;;;;4955059;28;20057;-74
2023/06/21 10:34:08;;;;;;;17.88;12.80;;;;;;;;;;4938328;28;20058;-74
2023/06/21 10:36:35;;;;;;;18.58;11.52;;;;;;;;;;4934175;28;20058;-72
2023/06/21 10:39:05;;;;;;;18.45;12.70;;;;;;;;;;5003229;28;20413;-74
2023/06/21 10:41:31;;;;;;;16.48;11.40;;;;;;;;;;4948311;28;20058;-73
2023/06/21 10:43:58;;;;;;;15.38;8.88;;;;;;;;;;4942039;28;20069;-74
2023/06/21 10:46:25;;;;;;;16.55;8.77;;;;;;;;;;4954442;28;20463;-74
2023/06/21 10:48:51;;;;;;;15.70;8.90;;;;;;;;;;5003140;28;20043;-74
2023/06/21 10:51:18;;;;;;;11.38;8.07;;;;;;;;;;4949334;28;20054;-73
2023/06/21 10:53:45;;;;;;;12.05;9.35;;;;;;;;;;5013556;28;20487;-74
2023/06/21 10:56:16;;;;;;;13.02;9.90;;;;;;;;;;5024236;28;20047;-74
2023/06/21 10:58:42;;;;;;;12.68;8.10;;;;;;;;;;4945615;28;20074;-74
2023/06/21 11:01:08;;;;;;;16.92;8.88;;;;;;;;;;4939874;28;20039;-74
2023/06/21 11:03:35;;;;;;;14.68;8.20;;;;;;;;;;4935684;28;20036;-74
2023/06/21 11:06:19;;;;;;;14.57;8.65;;;;;;;;;;5009138;28;20058;-74
2023/06/21 11:08:45;;;;;;;11.10;7.47;;;;;;;;;;4998678;28;20051;-74
2023/06/21 11:11:27;;;;;;;11.57;7.90;;;;;;;;;;5007648;28;20141;-73
2023/06/21 11:13:53;;;;;;;11.10;7.07;;;;;;;;;;4998363;28;20484;-73
2023/06/21 11:16:19;;;;;;;10.90;7.10;;;;;;;;;;4944563;28;20069;-73
2023/06/21 11:18:49;;;;;;;11.15;7.25;;;;;;;;;;4947061;28;20407;-73
2023/06/21 11:21:34;;;;;;;12.52;8.32;;;;;;;;;;4935425;28;20075;-74
2023/06/21 11:24:05;;;;;;;14.30;8.48;;;;;;;;;;4994180;28;20142;-73
2023/06/21 11:26:51;;;;;;;14.20;9.13;;;;;;;;;;4991635;28;21298;-74
2023/06/21 11:29:17;;;;;;;13.10;8.73;;;;;;;;;;4938877;28;20043;-73
2023/06/21 11:31:43;;;;;;;12.57;7.88;;;;;;;;;;4950392;28;20097;-73
2023/06/21 11:34:22;;;;;;;12.52;8.13;;;;;;;;;;4946020;28;20044;-73
2023/06/21 11:36:48;;;;;;;12.48;7.47;;;;;;;;;;4949382;28;20047;-73
2023/06/21 11:39:13;;;;;;;13.93;9.15;;;;;;;;;;4947759;28;20074;-74
2023/06/21 11:41:45;;;;;;;11.27;7.97;;;;;;;;;;4940739;28;20483;-73
2023/06/21 11:44:12;;;;;;;13.68;8.07;;;;;;;;;;5003353;28;20458;-72
2023/06/21 11:46:39;;;;;;;15.07;8.02;;;;;;;;;;5006622;28;20040;-73
2023/06/21 11:49:05;;;;;;;11.40;6.78;;;;;;;;;;4934900;28;20063;-73
2023/06/21 11:51:32;;;;;;;13.10;7.10;;;;;;;;;;4953307;28;20066;-74
2023/06/21 11:53:58;;;;;;;10.40;6.80;;;;;;;;;;5032973;28;20043;-72
2023/06/21 11:56:29;;;;;;;14.23;7.70;;;;;;;;;;4950154;28;20188;-72
2023/06/21 11:58:55;;;;;;;9.57;7.18;;;;;;;;;;4946704;28;20037;-72
2023/06/21 12:01:21;;;;;;;11.20;7.80;;;;;;;;;;4959667;28;20100;-72
2023/06/21 12:03:47;;;;;;;13.23;7.97;;;;;;;;;;5014480;28;20036;-72
2023/06/21 12:06:14;;;;;;;10.07;7.25;;;;;;;;;;4940974;28;20048;-72
2023/06/21 12:08:40;;;;;;;14.23;7.85;;;;;;;;;;4952113;28;20136;-72
2023/06/21 12:11:09;;;;;;;13.73;8.07;;;;;;;;;;4955157;28;20066;-72
2023/06/21 12:13:37;;;;;;;12.63;7.30;;;;;;;;;;4957336;28;20051;-72
2023/06/21 12:16:07;;;;;;;10.85;7.28;;;;;;;;;;5011211;28;20061;-72
2023/06/21 12:18:34;;;;;;;12.75;8.07;;;;;;;;;;4943007;28;20066;-72
2023/06/21 12:21:02;;;;;;;12.95;8.65;;;;;;;;;;4966315;28;20048;-72
2023/06/21 12:23:31;;;;;;;13.45;8.75;;;;;;;;;;4972619;28;20383;-72
2023/06/21 12:25:59;;;;;;;12.65;8.88;;;;;;;;;;5025055;28;20054;-72
2023/06/21 12:28:25;;;;;;;12.85;9.15;;;;;;;;;;4968887;28;20046;-72
2023/06/21 12:30:55;;;;;;;12.63;8.38;;;;;;;;;;5021663;28;20043;-72
2023/06/21 12:33:26;;;;;;;12.25;8.73;;;;;;;;;;4952360;28;20062;-71
2023/06/21 12:35:52;;;;;;;9.73;7.78;;;;;;;;;;4950951;28;20511;-72
2023/06/21 12:38:19;;;;;;;13.52;7.95;;;;;;;;;;4952025;28;20136;-71
2023/06/21 12:40:52;;;;;;;11.68;8.15;;;;;;;;;;4953991;28;20146;-72
2023/06/21 12:43:38;;;;;;;11.38;8.88;;;;;;;;;;5025015;28;20129;-73
2023/06/21 12:46:05;;;;;;;13.77;9.27;;;;;;;;;;4970548;28;20059;-73
2023/06/21 12:48:32;;;;;;;10.05;7.35;;;;;;;;;;4955443;28;20130;-73
2023/06/21 12:50:58;;;;;;;11.77;7.88;;;;;;;;;;4957140;28;20121;-72
2023/06/21 12:53:25;;;;;;;14.25;8.88;;;;;;;;;;4958232;28;20411;-71
2023/06/21 12:55:51;;;;;;;11.60;7.97;;;;;;;;;;4952149;28;20502;-72
2023/06/21 12:58:19;;;;;;;11.45;8.20;;;;;;;;;;5009103;28;20075;-71
2023/06/21 13:00:45;;;;;;;10.40;8.02;;;;;;;;;;4949357;28;20047;-72
2023/06/21 13:03:11;;;;;;;13.70;8.38;;;;;;;;;;4943224;28;20083;-72
2023/06/21 13:05:38;;;;;;;10.85;7.50;;;;;;;;;;4947978;28;20507;-72
2023/06/21 13:08:04;;;;;;;13.65;7.63;;;;;;;;;;4946997;28;20051;-72
2023/06/21 13:10:30;;;;;;;11.40;7.57;;;;;;;;;;4951520;28;20665;-72
2023/06/21 13:12:56;;;;;;;11.75;7.60;;;;;;;;;;5010066;28;20043;-72
2023/06/21 13:15:27;;;;;;;10.88;7.57;;;;;;;;;;4964031;28;20157;-72
2023/06/21 13:17:55;;;;;;;11.90;7.75;;;;;;;;;;5018194;28;20066;-72
2023/06/21 13:20:21;;;;;;;12.68;7.88;;;;;;;;;;5008613;28;20522;-72
2023/06/21 13:22:47;;;;;;;9.90;7.47;;;;;;;;;;4955000;28;20044;-71
2023/06/21 13:25:13;;;;;;;10.23;7.13;;;;;;;;;;4946154;28;20089;-71
2023/06/21 13:27:39;;;;;;;7.97;5.65;;;;;;;;;;4950193;28;20479;-71
2023/06/21 13:30:06;;;;;;;10.05;7.35;;;;;;;;;;4950836;28;20079;-71
2023/06/21 13:32:32;;;;;;;9.73;7.40;;;;;;;;;;4965628;28;20440;-72
2023/06/21 13:34:58;;;;;;;10.60;6.47;;;;;;;;;;5017631;28;20047;-72
2023/06/21 13:37:24;;;;;;;10.02;6.20;;;;;;;;;;5038135;28;20050;-71
2023/06/21 13:39:50;;;;;;;10.13;6.80;;;;;;;;;;4971243;28;20054;-71
2023/06/21 13:42:16;;;;;;;8.50;5.95;;;;;;;;;;4961567;28;20445;-71
2023/06/21 13:44:42;;;;;;;8.02;5.57;;;;;;;;;;5016660;28;20071;-71
2023/06/21 13:47:08;;;;;;;10.88;6.78;;;;;;;;;;5006659;28;20048;-72
2023/06/21 13:49:35;;;;;;;8.25;6.25;;;;;;;;;;5022200;28;20407;-72
2023/06/21 13:52:01;;;;;;;10.10;7.38;;;;;;;;;;4965394;28;20055;-72
2023/06/21 13:54:27;;;;;;;11.48;6.50;;;;;;;;;;4951290;28;20047;-71
2023/06/21 13:56:54;;;;;;;12.45;6.78;;;;;;;;;;4951965;28;20287;-72
2023/06/21 13:59:20;;;;;;;9.30;6.50;;;;;;;;;;4964189;28;20050;-72
2023/06/21 14:01:46;;;;;;;9.95;6.80;;;;;;;;;;5021457;28;20043;-72
2023/06/21 14:04:12;;;;;;;11.43;7.07;;;;;;;;;;5036992;28;20133;-72
2023/06/21 14:06:38;;;;;;;7.30;6.50;;;;;;;;;;4948728;28;20053;-72
2023/06/21 14:09:05;;;;;;;10.32;7.05;;;;;;;;;;5006512;28;20058;-71
2023/06/21 14:11:31;;;;;;;12.40;7.70;;;;;;;;;;4949857;28;20047;-71
2023/06/21 14:13:58;;;;;;;11.68;7.07;;;;;;;;;;4953967;28;20047;-73
2023/06/21 14:16:24;;;;;;;10.38;7.22;;;;;;;;;;4963634;28;20093;-73
2023/06/21 14:18:50;;;;;;;12.55;7.15;;;;;;;;;;4951041;28;20434;-72
2023/06/21 14:21:16;;;;;;;12.18;6.80;;;;;;;;;;4951626;28;20047;-69
2023/06/21 14:23:42;;;;;;;11.43;7.05;;;;;;;;;;4944149;28;20094;-70
2023/06/21 14:26:08;;;;;;;8.70;6.80;;;;;;;;;;4943842;28;20525;-69
2023/06/21 14:28:34;;;;;;;8.57;6.68;;;;;;;;;;4951916;28;20043;-70